Time;durP1;ratioP1;P1;durP2;ratioP2;P2;SDS_P1;SDS_P2;PMS_P1;PMS_P2;Temp;Humidity;BMP_temperature;BMP_pressure;BME280_temperature;BME280_humidity;BME280_pressure;Samples;Min_cycle;Max_cycle;Signal;HPM_P1;HPM_P2
2024/01/07 00:01:47;;;;;;;22.08;16.73;;;;;;;;;;5085528;28;20196;-71
2024/01/07 00:04:15;;;;;;;25.75;17.63;;;;;;;;;;5084816;28;20249;-71
2024/01/07 00:06:41;;;;;;;21.10;17.00;;;;;;;;;;5072762;28;20239;-71
2024/01/07 00:09:07;;;;;;;23.73;17.17;;;;;;;;;;5081512;28;20220;-71
2024/01/07 00:11:33;;;;;;;24.90;17.63;;;;;;;;;;5083210;28;20602;-71
2024/01/07 00:14:00;;;;;;;24.35;18.42;;;;;;;;;;5084968;28;20696;-71
2024/01/07 00:16:26;;;;;;;22.73;17.65;;;;;;;;;;5083592;28;20637;-71
2024/01/07 00:18:52;;;;;;;24.02;17.13;;;;;;;;;;5081171;28;20615;-71
2024/01/07 00:21:20;;;;;;;23.50;17.80;;;;;;;;;;5081313;28;20590;-71
2024/01/07 00:23:46;;;;;;;22.73;16.92;;;;;;;;;;5084795;28;20196;-71
2024/01/07 00:26:12;;;;;;;23.40;17.13;;;;;;;;;;5084787;28;20231;-71
2024/01/07 00:28:38;;;;;;;24.30;17.70;;;;;;;;;;5081344;28;20618;-71
2024/01/07 00:31:07;;;;;;;24.50;17.45;;;;;;;;;;5081401;28;20727;-71
2024/01/07 00:33:33;;;;;;;24.02;17.40;;;;;;;;;;5082599;28;20661;-71
2024/01/07 00:35:59;;;;;;;22.98;16.98;;;;;;;;;;5084212;28;20233;-71
2024/01/07 00:38:27;;;;;;;25.63;17.92;;;;;;;;;;5083127;28;20238;-71
2024/01/07 00:40:53;;;;;;;24.75;17.55;;;;;;;;;;5081334;28;20200;-71
2024/01/07 00:43:19;;;;;;;23.67;17.70;;;;;;;;;;5080914;28;20203;-71
2024/01/07 00:45:46;;;;;;;24.67;18.15;;;;;;;;;;5071883;28;20228;-71
2024/01/07 00:48:12;;;;;;;23.67;17.10;;;;;;;;;;5078916;28;20199;-71
2024/01/07 00:50:38;;;;;;;27.10;18.73;;;;;;;;;;5080902;28;20203;-71
2024/01/07 00:53:04;;;;;;;24.45;17.05;;;;;;;;;;5080518;28;20200;-71
2024/01/07 00:55:32;;;;;;;24.42;18.27;;;;;;;;;;5081640;28;20220;-71
2024/01/07 00:57:58;;;;;;;23.60;17.67;;;;;;;;;;5083711;28;20200;-71
2024/01/07 01:00:24;;;;;;;23.23;17.35;;;;;;;;;;5083305;28;20253;-71
2024/01/07 01:02:51;;;;;;;25.15;17.73;;;;;;;;;;5080062;28;20207;-71
2024/01/07 01:05:17;;;;;;;23.90;16.67;;;;;;;;;;5087389;28;20215;-71
2024/01/07 01:07:43;;;;;;;26.58;17.85;;;;;;;;;;5080618;28;20196;-71
2024/01/07 01:10:10;;;;;;;23.05;17.83;;;;;;;;;;5079403;28;20196;-71
2024/01/07 01:12:37;;;;;;;28.30;18.73;;;;;;;;;;5081446;28;20212;-71
2024/01/07 01:15:04;;;;;;;26.63;17.75;;;;;;;;;;5083187;28;20223;-71
2024/01/07 01:17:31;;;;;;;22.00;17.50;;;;;;;;;;5081867;28;20257;-71
2024/01/07 01:19:57;;;;;;;22.67;17.92;;;;;;;;;;5079679;28;20227;-71
2024/01/07 01:22:23;;;;;;;23.40;18.17;;;;;;;;;;5079972;28;20196;-71
2024/01/07 01:24:51;;;;;;;25.77;18.52;;;;;;;;;;5079905;28;20547;-71
2024/01/07 01:27:17;;;;;;;24.55;17.33;;;;;;;;;;5079935;28;20204;-71
2024/01/07 01:29:44;;;;;;;22.17;16.55;;;;;;;;;;5082079;28;20629;-71
2024/01/07 01:32:11;;;;;;;23.85;16.77;;;;;;;;;;5082832;28;20256;-71
2024/01/07 01:34:37;;;;;;;23.83;17.30;;;;;;;;;;5080897;28;20215;-71
2024/01/07 01:37:04;;;;;;;20.83;16.50;;;;;;;;;;5079628;28;20216;-71
2024/01/07 01:39:30;;;;;;;24.30;17.27;;;;;;;;;;5080324;28;20227;-71
2024/01/07 01:41:58;;;;;;;24.52;17.48;;;;;;;;;;5078799;28;20220;-71
2024/01/07 01:44:24;;;;;;;23.23;16.55;;;;;;;;;;5079466;28;20197;-71
2024/01/07 01:46:52;;;;;;;23.00;16.77;;;;;;;;;;5082368;28;20220;-71
2024/01/07 01:49:18;;;;;;;22.88;16.90;;;;;;;;;;5082796;28;20584;-71
2024/01/07 01:51:44;;;;;;;20.75;16.48;;;;;;;;;;5080460;28;20199;-71
2024/01/07 01:54:11;;;;;;;21.88;16.33;;;;;;;;;;5079623;28;20499;-71
2024/01/07 01:56:37;;;;;;;24.30;15.82;;;;;;;;;;5080464;28;20277;-71
2024/01/07 01:59:03;;;;;;;21.08;15.65;;;;;;;;;;5082882;28;20619;-71
2024/01/07 02:01:31;;;;;;;19.98;15.27;;;;;;;;;;5082389;28;20606;-73
2024/01/07 02:03:58;;;;;;;18.35;14.50;;;;;;;;;;5079126;28;20246;-72
2024/01/07 02:06:25;;;;;;;22.27;14.63;;;;;;;;;;5079395;28;20212;-72
2024/01/07 02:08:51;;;;;;;18.67;14.27;;;;;;;;;;5082584;28;20196;-71
2024/01/07 02:11:18;;;;;;;20.17;15.60;;;;;;;;;;5082556;28;20207;-71
2024/01/07 02:13:44;;;;;;;20.85;15.07;;;;;;;;;;5079995;28;20214;-71
2024/01/07 02:16:11;;;;;;;19.92;14.10;;;;;;;;;;5078919;28;20221;-71
2024/01/07 02:18:37;;;;;;;21.02;14.48;;;;;;;;;;5080386;28;20204;-71
2024/01/07 02:21:05;;;;;;;20.27;14.60;;;;;;;;;;5083744;28;20714;-71
2024/01/07 02:23:31;;;;;;;21.70;14.25;;;;;;;;;;5086326;28;20248;-71
2024/01/07 02:25:59;;;;;;;21.33;14.93;;;;;;;;;;5082825;28;20208;-71
2024/01/07 02:28:25;;;;;;;18.75;14.68;;;;;;;;;;5082913;28;20250;-71
2024/01/07 02:30:51;;;;;;;18.92;14.40;;;;;;;;;;5085319;28;20200;-71
2024/01/07 02:33:17;;;;;;;18.58;14.15;;;;;;;;;;5086063;28;20253;-71
2024/01/07 02:35:44;;;;;;;21.00;14.55;;;;;;;;;;5083666;28;20683;-71
2024/01/07 02:38:10;;;;;;;20.65;14.55;;;;;;;;;;5082886;28;20201;-71
2024/01/07 02:40:36;;;;;;;21.27;14.82;;;;;;;;;;5083213;28;20204;-71
2024/01/07 02:43:04;;;;;;;19.02;15.15;;;;;;;;;;5085784;28;20196;-71
2024/01/07 02:45:30;;;;;;;22.10;14.63;;;;;;;;;;5085382;28;20219;-71
2024/01/07 02:47:57;;;;;;;18.77;13.10;;;;;;;;;;5074020;28;20663;-71
2024/01/07 02:50:23;;;;;;;17.25;13.27;;;;;;;;;;5082414;28;20668;-71
2024/01/07 02:52:49;;;;;;;20.65;13.85;;;;;;;;;;5084818;28;20249;-71
2024/01/07 02:55:15;;;;;;;17.30;12.48;;;;;;;;;;5085647;28;20224;-71
2024/01/07 02:57:42;;;;;;;18.02;12.95;;;;;;;;;;5084345;28;20253;-71
2024/01/07 03:00:10;;;;;;;19.67;14.13;;;;;;;;;;5081899;28;20204;-71
2024/01/07 03:02:36;;;;;;;16.20;12.63;;;;;;;;;;5082471;28;20200;-71
2024/01/07 03:05:03;;;;;;;18.48;13.63;;;;;;;;;;5089818;28;20192;-71
2024/01/07 03:07:29;;;;;;;15.65;12.85;;;;;;;;;;5128072;22;20219;-72
2024/01/07 03:09:55;;;;;;;17.58;13.18;;;;;;;;;;5126070;27;20202;-72
2024/01/07 03:12:22;;;;;;;21.05;14.10;;;;;;;;;;5126564;27;20224;-72
2024/01/07 03:14:48;;;;;;;17.00;12.40;;;;;;;;;;5123947;27;20207;-72
2024/01/07 03:17:17;;;;;;;15.98;12.85;;;;;;;;;;5100874;28;20218;-72
2024/01/07 03:19:43;;;;;;;15.55;11.80;;;;;;;;;;5105401;28;20271;-72
2024/01/07 03:22:09;;;;;;;16.17;12.93;;;;;;;;;;5103109;28;20245;-72
2024/01/07 03:24:35;;;;;;;14.80;11.95;;;;;;;;;;5102505;28;20199;-72
2024/01/07 03:27:02;;;;;;;16.08;12.75;;;;;;;;;;5105896;28;20223;-72
2024/01/07 03:29:28;;;;;;;22.02;13.45;;;;;;;;;;5105861;28;20244;-72
2024/01/07 03:31:54;;;;;;;14.98;12.18;;;;;;;;;;5102939;28;20260;-72
2024/01/07 03:34:22;;;;;;;16.13;12.32;;;;;;;;;;5100008;28;20251;-72
2024/01/07 03:36:48;;;;;;;15.40;12.18;;;;;;;;;;5103622;28;20713;-72
2024/01/07 03:39:14;;;;;;;16.67;13.00;;;;;;;;;;5098683;28;20221;-72
2024/01/07 03:41:40;;;;;;;18.98;13.70;;;;;;;;;;5105187;28;20260;-72
2024/01/07 03:44:07;;;;;;;16.90;13.20;;;;;;;;;;5102555;28;20191;-72
2024/01/07 03:46:33;;;;;;;16.98;12.95;;;;;;;;;;5102147;28;20265;-72
2024/01/07 03:49:00;;;;;;;15.93;13.15;;;;;;;;;;5105267;28;20670;-72
2024/01/07 03:51:27;;;;;;;16.17;13.15;;;;;;;;;;5105411;28;20195;-72
2024/01/07 03:53:53;;;;;;;13.90;11.55;;;;;;;;;;5103056;28;20199;-72
2024/01/07 03:56:20;;;;;;;13.60;11.40;;;;;;;;;;5101636;28;20257;-72
2024/01/07 03:58:46;;;;;;;15.30;11.32;;;;;;;;;;5102943;28;20225;-72
2024/01/07 04:01:16;;;;;;;12.27;10.75;;;;;;;;;;5105150;28;20620;-72
2024/01/07 04:03:42;;;;;;;15.35;11.95;;;;;;;;;;5104693;28;20214;-72
2024/01/07 04:06:08;;;;;;;15.65;11.57;;;;;;;;;;5101253;28;20219;-72
2024/01/07 04:08:36;;;;;;;18.08;11.93;;;;;;;;;;5101031;28;20682;-72
2024/01/07 04:11:02;;;;;;;14.15;11.48;;;;;;;;;;5102083;28;20603;-72
2024/01/07 04:13:29;;;;;;;13.63;11.27;;;;;;;;;;5101884;28;20200;-72
2024/01/07 04:15:55;;;;;;;16.98;11.63;;;;;;;;;;5103144;28;20224;-72
2024/01/07 04:18:21;;;;;;;14.10;11.65;;;;;;;;;;5105040;28;20195;-72
2024/01/07 04:20:47;;;;;;;14.68;11.23;;;;;;;;;;5096624;28;20203;-72
2024/01/07 04:23:13;;;;;;;15.93;10.85;;;;;;;;;;5104736;28;20219;-72
2024/01/07 04:25:42;;;;;;;14.15;10.95;;;;;;;;;;5104765;28;20223;-72
2024/01/07 04:28:09;;;;;;;13.27;11.35;;;;;;;;;;5105088;28;20571;-72
2024/01/07 04:30:35;;;;;;;12.73;10.50;;;;;;;;;;5105061;28;20282;-72
2024/01/07 04:33:02;;;;;;;13.30;10.55;;;;;;;;;;5101972;28;20199;-72
2024/01/07 04:35:28;;;;;;;12.18;10.88;;;;;;;;;;5100843;28;20230;-72
2024/01/07 04:37:55;;;;;;;12.05;10.63;;;;;;;;;;5102532;28;20257;-72
2024/01/07 04:40:21;;;;;;;13.23;11.27;;;;;;;;;;5104539;28;20252;-72
2024/01/07 04:42:48;;;;;;;12.93;10.77;;;;;;;;;;5103743;28;20195;-72
2024/01/07 04:45:15;;;;;;;15.93;11.40;;;;;;;;;;5099796;28;20224;-72
2024/01/07 04:47:41;;;;;;;12.85;11.27;;;;;;;;;;5100969;28;20207;-72
2024/01/07 04:50:08;;;;;;;14.00;11.13;;;;;;;;;;5104523;28;20293;-72
2024/01/07 04:52:34;;;;;;;12.32;10.25;;;;;;;;;;5103901;28;20207;-72
2024/01/07 04:55:00;;;;;;;14.77;10.65;;;;;;;;;;5102062;28;20199;-72
2024/01/07 04:57:26;;;;;;;13.75;10.57;;;;;;;;;;5100267;28;20207;-72
2024/01/07 04:59:54;;;;;;;13.77;11.20;;;;;;;;;;5101740;28;20237;-72
2024/01/07 05:02:20;;;;;;;12.15;10.80;;;;;;;;;;5104106;28;20195;-72
2024/01/07 05:04:47;;;;;;;14.70;11.45;;;;;;;;;;5103515;28;20203;-72
2024/01/07 05:07:13;;;;;;;12.93;10.50;;;;;;;;;;5100036;28;20196;-72
2024/01/07 05:09:40;;;;;;;12.55;10.77;;;;;;;;;;5100220;28;20576;-72
2024/01/07 05:12:06;;;;;;;16.38;11.82;;;;;;;;;;5103293;28;20256;-72
2024/01/07 05:14:33;;;;;;;11.93;10.73;;;;;;;;;;5103868;28;20199;-72
2024/01/07 05:17:00;;;;;;;11.93;10.43;;;;;;;;;;5101692;28;20272;-72
2024/01/07 05:19:26;;;;;;;11.60;10.15;;;;;;;;;;5100820;28;20204;-72
2024/01/07 05:21:53;;;;;;;13.15;11.38;;;;;;;;;;5100968;28;20207;-72
2024/01/07 05:24:20;;;;;;;13.23;10.85;;;;;;;;;;5103894;28;20611;-72
2024/01/07 05:26:46;;;;;;;12.88;10.93;;;;;;;;;;5103613;28;20629;-72
2024/01/07 05:29:13;;;;;;;13.73;10.65;;;;;;;;;;5103883;28;20248;-72
2024/01/07 05:31:39;;;;;;;12.95;10.55;;;;;;;;;;5104051;28;20770;-72
2024/01/07 05:34:07;;;;;;;14.48;10.60;;;;;;;;;;5086027;28;20207;-72
2024/01/07 05:36:33;;;;;;;13.27;10.82;;;;;;;;;;5103990;28;20223;-72
2024/01/07 05:38:59;;;;;;;12.10;10.90;;;;;;;;;;5102229;28;20199;-72
2024/01/07 05:41:25;;;;;;;12.77;10.68;;;;;;;;;;5100620;28;20204;-72
2024/01/07 05:43:52;;;;;;;14.10;11.63;;;;;;;;;;5107080;28;20206;-72
2024/01/07 05:46:18;;;;;;;12.77;11.07;;;;;;;;;;5115445;28;20263;-72
2024/01/07 05:48:45;;;;;;;13.75;10.55;;;;;;;;;;5110965;28;20212;-72
2024/01/07 05:51:13;;;;;;;16.00;10.55;;;;;;;;;;5100102;28;20204;-72
2024/01/07 05:53:39;;;;;;;15.07;10.82;;;;;;;;;;5100073;28;20664;-72
2024/01/07 05:56:06;;;;;;;12.45;11.07;;;;;;;;;;5103604;28;20265;-72
2024/01/07 05:58:32;;;;;;;14.52;11.70;;;;;;;;;;5107768;28;20652;-72
2024/01/07 06:00:58;;;;;;;12.07;10.85;;;;;;;;;;5106252;28;20575;-72
2024/01/07 06:03:24;;;;;;;12.77;11.32;;;;;;;;;;5104328;28;20239;-72
2024/01/07 06:05:51;;;;;;;15.30;11.30;;;;;;;;;;5103332;28;20224;-72
2024/01/07 06:08:19;;;;;;;14.50;10.88;;;;;;;;;;5107035;28;20659;-72
2024/01/07 06:10:45;;;;;;;12.48;10.80;;;;;;;;;;5107042;28;20199;-72
2024/01/07 06:13:11;;;;;;;14.88;10.32;;;;;;;;;;5106519;28;20203;-72
2024/01/07 06:15:38;;;;;;;13.38;10.35;;;;;;;;;;5105865;28;20219;-72
2024/01/07 06:18:04;;;;;;;12.07;10.68;;;;;;;;;;5104236;28;20203;-72
2024/01/07 06:20:30;;;;;;;15.75;10.68;;;;;;;;;;5102618;28;20223;-72
2024/01/07 06:22:57;;;;;;;12.75;11.40;;;;;;;;;;5103545;28;20208;-72
2024/01/07 06:25:26;;;;;;;13.32;10.20;;;;;;;;;;5106041;28;20219;-73
2024/01/07 06:27:52;;;;;;;12.80;10.98;;;;;;;;;;5106012;28;20211;-72
2024/01/07 06:30:19;;;;;;;11.85;10.65;;;;;;;;;;5105970;28;20562;-72
2024/01/07 06:32:45;;;;;;;12.35;10.30;;;;;;;;;;5106147;28;20289;-72
2024/01/07 06:35:11;;;;;;;12.35;11.05;;;;;;;;;;5105897;28;20287;-72
2024/01/07 06:37:38;;;;;;;13.35;11.32;;;;;;;;;;5105729;28;20222;-71
2024/01/07 06:40:04;;;;;;;14.88;11.80;;;;;;;;;;5103977;28;20207;-71
2024/01/07 06:42:32;;;;;;;13.70;12.20;;;;;;;;;;5102269;28;20278;-71
2024/01/07 06:44:58;;;;;;;13.05;11.55;;;;;;;;;;5102279;28;20200;-71
2024/01/07 06:47:24;;;;;;;15.55;12.68;;;;;;;;;;5105143;28;20199;-71
2024/01/07 06:49:50;;;;;;;12.55;11.27;;;;;;;;;;5106320;28;20617;-71
2024/01/07 06:52:16;;;;;;;15.27;12.10;;;;;;;;;;5104782;28;20256;-72
2024/01/07 06:54:50;;;;;;;14.60;12.63;;;;;;;;;;5107217;28;20444;-64
2024/01/07 06:57:16;;;;;;;16.55;12.77;;;;;;;;;;5102994;28;20701;-63
2024/01/07 06:59:43;;;;;;;14.65;11.80;;;;;;;;;;5102995;28;20461;-63
2024/01/07 07:02:10;;;;;;;12.93;11.52;;;;;;;;;;5094957;28;20208;-63
2024/01/07 07:04:36;;;;;;;12.55;11.18;;;;;;;;;;5103465;28;20260;-63
2024/01/07 07:07:03;;;;;;;14.25;11.40;;;;;;;;;;5101061;28;20226;-63
2024/01/07 07:09:29;;;;;;;12.77;11.48;;;;;;;;;;5099561;28;20222;-63
2024/01/07 07:11:55;;;;;;;13.80;11.60;;;;;;;;;;5099878;28;20732;-63
2024/01/07 07:14:21;;;;;;;12.38;10.77;;;;;;;;;;5105046;28;20203;-63
2024/01/07 07:16:49;;;;;;;12.55;10.73;;;;;;;;;;5105414;28;20211;-63
2024/01/07 07:19:16;;;;;;;12.80;11.43;;;;;;;;;;5103165;28;20276;-64
2024/01/07 07:21:42;;;;;;;14.93;11.27;;;;;;;;;;5102042;28;20199;-63
2024/01/07 07:24:09;;;;;;;11.63;10.43;;;;;;;;;;5103414;28;20257;-63
2024/01/07 07:26:35;;;;;;;12.70;11.40;;;;;;;;;;5105125;28;20226;-64
2024/01/07 07:29:02;;;;;;;14.27;11.43;;;;;;;;;;5105017;28;20252;-63
2024/01/07 07:31:28;;;;;;;13.05;11.68;;;;;;;;;;5101978;28;20191;-63
2024/01/07 07:33:55;;;;;;;14.23;11.60;;;;;;;;;;5101853;28;20253;-64
2024/01/07 07:36:22;;;;;;;13.05;11.63;;;;;;;;;;5104542;28;20227;-63
2024/01/07 07:38:48;;;;;;;14.30;11.13;;;;;;;;;;5105205;28;20199;-63
2024/01/07 07:41:14;;;;;;;14.30;11.82;;;;;;;;;;5102811;28;20207;-63
2024/01/07 07:43:40;;;;;;;12.27;10.98;;;;;;;;;;5101739;28;20211;-63
2024/01/07 07:46:07;;;;;;;12.52;10.43;;;;;;;;;;5102248;28;20232;-63
2024/01/07 07:48:33;;;;;;;12.82;11.52;;;;;;;;;;5105026;28;20195;-63
2024/01/07 07:51:00;;;;;;;17.90;11.90;;;;;;;;;;5104749;28;20203;-63
2024/01/07 07:53:27;;;;;;;13.85;11.70;;;;;;;;;;5104956;28;20616;-63
2024/01/07 07:55:53;;;;;;;11.80;10.60;;;;;;;;;;5104407;28;20711;-63
2024/01/07 07:58:19;;;;;;;13.82;10.85;;;;;;;;;;5102395;28;20227;-64
2024/01/07 08:00:46;;;;;;;13.43;11.45;;;;;;;;;;5101344;28;20261;-63
2024/01/07 08:03:12;;;;;;;11.75;10.30;;;;;;;;;;5103038;28;20243;-63
2024/01/07 08:05:39;;;;;;;11.70;8.35;;;;;;;;;;5104591;28;20223;-64
2024/01/07 08:08:07;;;;;;;11.93;9.25;;;;;;;;;;5104275;28;20240;-63
2024/01/07 08:10:35;;;;;;;9.82;8.18;;;;;;;;;;5101033;28;20249;-62
2024/01/07 08:13:01;;;;;;;9.27;8.25;;;;;;;;;;5101439;28;20727;-63
2024/01/07 08:15:27;;;;;;;9.50;8.23;;;;;;;;;;5096029;28;20600;-64
2024/01/07 08:17:54;;;;;;;8.30;7.50;;;;;;;;;;5104632;28;20219;-63
2024/01/07 08:20:20;;;;;;;9.55;8.63;;;;;;;;;;5102033;28;20288;-64
2024/01/07 08:22:46;;;;;;;9.52;7.93;;;;;;;;;;5101013;28;20200;-63
2024/01/07 08:25:14;;;;;;;9.77;7.85;;;;;;;;;;5102043;28;20280;-63
2024/01/07 08:27:41;;;;;;;8.75;7.85;;;;;;;;;;5104170;28;20199;-63
2024/01/07 08:30:08;;;;;;;11.02;8.95;;;;;;;;;;5104117;28;20195;-63
2024/01/07 08:32:34;;;;;;;10.07;7.50;;;;;;;;;;5100770;28;20671;-64
2024/01/07 08:35:01;;;;;;;8.30;7.50;;;;;;;;;;5100901;28;20207;-63
2024/01/07 08:37:27;;;;;;;8.02;6.57;;;;;;;;;;5103489;28;20255;-63
2024/01/07 08:39:54;;;;;;;7.45;6.53;;;;;;;;;;5104412;28;20207;-63
2024/01/07 08:42:21;;;;;;;6.43;5.75;;;;;;;;;;5102092;28;20293;-63
2024/01/07 08:44:48;;;;;;;7.18;6.47;;;;;;;;;;5100646;28;20199;-63
2024/01/07 08:47:14;;;;;;;7.55;6.55;;;;;;;;;;5101865;28;20302;-63
2024/01/07 08:49:40;;;;;;;8.55;6.40;;;;;;;;;;5104142;28;20217;-63
2024/01/07 08:52:07;;;;;;;7.13;6.40;;;;;;;;;;5103723;28;20203;-63
2024/01/07 08:54:33;;;;;;;7.95;6.43;;;;;;;;;;5100723;28;20192;-63
2024/01/07 08:56:59;;;;;;;7.32;6.38;;;;;;;;;;5100102;28;20755;-64
2024/01/07 08:59:27;;;;;;;7.63;6.80;;;;;;;;;;5102957;28;20672;-64
2024/01/07 09:01:53;;;;;;;7.22;6.50;;;;;;;;;;5103917;28;20553;-64
2024/01/07 09:04:19;;;;;;;7.65;6.95;;;;;;;;;;5102444;28;20543;-64
2024/01/07 09:06:46;;;;;;;7.30;6.55;;;;;;;;;;5099941;28;20786;-64
2024/01/07 09:09:12;;;;;;;9.52;6.38;;;;;;;;;;5100999;28;20237;-64
2024/01/07 09:11:39;;;;;;;6.85;6.20;;;;;;;;;;5103805;28;20199;-63
2024/01/07 09:14:05;;;;;;;7.70;6.57;;;;;;;;;;5103823;28;20199;-63
2024/01/07 09:16:33;;;;;;;8.10;6.35;;;;;;;;;;5100030;28;20593;-63
2024/01/07 09:18:59;;;;;;;6.63;6.03;;;;;;;;;;5100394;28;20644;-64
2024/01/07 09:21:25;;;;;;;7.22;6.07;;;;;;;;;;5102138;28;20276;-64
2024/01/07 09:23:52;;;;;;;7.00;6.25;;;;;;;;;;5103888;28;20350;-64
2024/01/07 09:26:18;;;;;;;7.68;6.97;;;;;;;;;;5101870;28;20633;-64
2024/01/07 09:28:44;;;;;;;5.53;5.07;;;;;;;;;;5100101;28;20684;-64
2024/01/07 09:31:10;;;;;;;6.72;6.10;;;;;;;;;;5103706;28;20233;-64
2024/01/07 09:33:38;;;;;;;6.25;5.65;;;;;;;;;;5110390;28;20206;-64
2024/01/07 09:36:05;;;;;;;6.07;5.47;;;;;;;;;;5110526;28;20219;-63
2024/01/07 09:38:31;;;;;;;6.18;5.57;;;;;;;;;;5107334;28;20640;-63
2024/01/07 09:40:56;;;;;;;5.20;4.80;;;;;;;;;;5106590;28;20748;-63
2024/01/07 09:43:22;;;;;;;5.28;4.88;;;;;;;;;;5106866;28;20195;-63
2024/01/07 09:45:49;;;;;;;5.47;5.07;;;;;;;;;;5106469;28;20227;-63
2024/01/07 09:48:16;;;;;;;5.32;4.93;;;;;;;;;;5107111;28;20256;-63
2024/01/07 09:50:43;;;;;;;6.50;5.68;;;;;;;;;;5110119;28;20259;-63
2024/01/07 09:53:12;;;;;;;6.20;5.55;;;;;;;;;;5110286;28;20203;-63
2024/01/07 09:55:41;;;;;;;6.00;5.50;;;;;;;;;;5098048;28;20667;-63
2024/01/07 09:58:07;;;;;;;6.53;5.80;;;;;;;;;;5106662;28;20245;-63
2024/01/07 10:00:33;;;;;;;6.35;5.75;;;;;;;;;;5109296;28;20203;-63
2024/01/07 10:03:00;;;;;;;6.53;5.93;;;;;;;;;;5110171;28;20203;-63
2024/01/07 10:05:26;;;;;;;6.50;5.90;;;;;;;;;;5108239;27;20227;-63
2024/01/07 10:07:55;;;;;;;5.93;5.43;;;;;;;;;;5106465;28;20687;-63
2024/01/07 10:10:22;;;;;;;7.15;5.97;;;;;;;;;;5107600;28;20640;-63
2024/01/07 10:12:48;;;;;;;7.47;6.25;;;;;;;;;;5110003;28;20252;-63
2024/01/07 10:15:14;;;;;;;6.68;5.97;;;;;;;;;;5109610;28;20214;-63
2024/01/07 10:17:42;;;;;;;6.35;5.72;;;;;;;;;;5106339;28;20211;-63
2024/01/07 10:20:09;;;;;;;6.53;5.93;;;;;;;;;;5106701;28;20196;-63
2024/01/07 10:22:36;;;;;;;7.90;6.15;;;;;;;;;;5109226;28;20305;-63
2024/01/07 10:25:03;;;;;;;7.22;6.53;;;;;;;;;;5109793;28;20264;-63
2024/01/07 10:27:31;;;;;;;6.93;6.20;;;;;;;;;;5107816;28;20663;-63
2024/01/07 10:29:59;;;;;;;7.50;6.72;;;;;;;;;;5106441;28;20199;-63
2024/01/07 10:32:25;;;;;;;6.72;6.03;;;;;;;;;;5107342;28;20617;-62
2024/01/07 10:34:56;;;;;;;7.75;6.47;;;;;;;;;;5109752;28;20732;-62
2024/01/07 10:37:23;;;;;;;9.27;6.85;;;;;;;;;;5108799;28;20279;-63
2024/01/07 10:39:49;;;;;;;7.38;6.53;;;;;;;;;;5106343;28;20199;-62
2024/01/07 10:42:17;;;;;;;10.07;7.65;;;;;;;;;;5104914;28;20200;-63
2024/01/07 10:44:44;;;;;;;7.40;6.65;;;;;;;;;;5094690;28;20242;-63
2024/01/07 10:47:11;;;;;;;8.18;7.22;;;;;;;;;;5103027;28;20692;-63
2024/01/07 10:49:40;;;;;;;9.45;7.82;;;;;;;;;;5105973;28;20199;-63
2024/01/07 10:52:07;;;;;;;8.63;6.93;;;;;;;;;;5106507;28;20609;-63
2024/01/07 10:54:34;;;;;;;7.50;6.82;;;;;;;;;;5103954;28;20707;-63
2024/01/07 10:57:05;;;;;;;7.95;7.20;;;;;;;;;;5103368;28;20226;-63
2024/01/07 10:59:33;;;;;;;9.05;8.02;;;;;;;;;;5104784;28;20664;-64
2024/01/07 11:01:59;;;;;;;8.68;7.82;;;;;;;;;;5106399;28;20217;-64
2024/01/07 11:04:30;;;;;;;8.00;7.20;;;;;;;;;;5105413;28;20192;-64
2024/01/07 11:07:00;;;;;;;8.70;7.30;;;;;;;;;;5102911;28;20270;-63
2024/01/07 11:09:29;;;;;;;9.80;7.57;;;;;;;;;;5103539;28;20195;-64
2024/01/07 11:11:55;;;;;;;10.07;7.20;;;;;;;;;;5106016;28;20675;-64
2024/01/07 11:14:36;;;;;;;7.05;6.35;;;;;;;;;;5106149;28;20246;-64
2024/01/07 11:17:03;;;;;;;7.43;6.72;;;;;;;;;;5102376;28;20303;-64
2024/01/07 11:19:29;;;;;;;7.93;7.13;;;;;;;;;;5103548;28;20298;-64
2024/01/07 11:22:18;;;;;;;7.25;6.55;;;;;;;;;;5105681;28;20664;-65
2024/01/07 11:24:44;;;;;;;8.00;6.80;;;;;;;;;;5102284;28;20204;-63
2024/01/07 11:27:10;;;;;;;11.02;8.48;;;;;;;;;;5102237;28;20207;-63
2024/01/07 11:29:38;;;;;;;9.60;8.15;;;;;;;;;;5104328;28;20200;-63
2024/01/07 11:32:06;;;;;;;8.07;7.30;;;;;;;;;;5105559;28;20203;-64
2024/01/07 11:34:43;;;;;;;9.00;7.45;;;;;;;;;;5103948;28;20252;-64
2024/01/07 11:37:11;;;;;;;7.38;6.68;;;;;;;;;;5101820;28;20719;-64
2024/01/07 11:39:37;;;;;;;8.75;7.03;;;;;;;;;;5104059;28;20220;-64
2024/01/07 11:42:04;;;;;;;7.65;6.95;;;;;;;;;;5105526;28;20202;-65
2024/01/07 11:44:30;;;;;;;7.57;6.65;;;;;;;;;;5104409;28;20248;-64
2024/01/07 11:46:58;;;;;;;7.07;6.47;;;;;;;;;;5101860;28;20215;-64
2024/01/07 11:49:24;;;;;;;7.13;6.43;;;;;;;;;;5102506;28;20200;-64
2024/01/07 11:51:51;;;;;;;7.63;6.88;;;;;;;;;;5101865;28;20262;-64
2024/01/07 11:54:18;;;;;;;7.40;6.70;;;;;;;;;;5101440;28;20196;-64
2024/01/07 11:56:45;;;;;;;6.95;6.30;;;;;;;;;;5104718;28;20600;-64
2024/01/07 11:59:11;;;;;;;7.88;6.65;;;;;;;;;;5105202;28;20222;-64
2024/01/07 12:01:37;;;;;;;6.50;5.90;;;;;;;;;;5103404;28;20203;-65
2024/01/07 12:04:05;;;;;;;6.93;6.32;;;;;;;;;;5101848;28;20257;-64
2024/01/07 12:06:31;;;;;;;6.95;6.15;;;;;;;;;;5102493;28;20219;-64
2024/01/07 12:08:57;;;;;;;6.28;5.68;;;;;;;;;;5105402;28;20203;-64
2024/01/07 12:11:24;;;;;;;6.32;5.85;;;;;;;;;;5105288;28;20199;-64
2024/01/07 12:13:50;;;;;;;6.55;5.93;;;;;;;;;;5105270;28;20290;-64
2024/01/07 12:16:17;;;;;;;5.72;5.30;;;;;;;;;;5095877;28;20323;-63
2024/01/07 12:18:43;;;;;;;6.25;5.65;;;;;;;;;;5089149;28;20227;-63
2024/01/07 12:21:11;;;;;;;6.60;6.00;;;;;;;;;;5095154;28;20203;-62
2024/01/07 12:23:37;;;;;;;6.35;5.85;;;;;;;;;;5096674;28;20265;-62
2024/01/07 12:26:10;;;;;;;6.32;5.72;;;;;;;;;;5098546;28;20215;-62
2024/01/07 12:28:37;;;;;;;5.80;5.38;;;;;;;;;;5089631;28;20227;-63
2024/01/07 12:31:03;;;;;;;6.50;5.80;;;;;;;;;;5098716;28;20207;-62
2024/01/07 12:33:31;;;;;;;6.45;5.90;;;;;;;;;;5098715;28;20214;-62
2024/01/07 12:35:58;;;;;;;6.43;5.93;;;;;;;;;;5090670;28;20223;-62
2024/01/07 12:38:26;;;;;;;7.07;6.40;;;;;;;;;;5098831;28;20226;-62
2024/01/07 12:40:52;;;;;;;7.20;6.30;;;;;;;;;;5094963;28;20253;-61
2024/01/07 12:43:18;;;;;;;6.97;6.38;;;;;;;;;;5094835;28;20212;-61
2024/01/07 12:45:46;;;;;;;6.95;6.28;;;;;;;;;;5097569;28;20292;-63
2024/01/07 12:48:12;;;;;;;7.70;6.53;;;;;;;;;;5098590;28;20232;-63
2024/01/07 12:50:38;;;;;;;7.32;6.60;;;;;;;;;;5096957;28;20213;-60
2024/01/07 12:53:05;;;;;;;6.68;6.13;;;;;;;;;;5095155;28;20355;-62
2024/01/07 12:55:33;;;;;;;6.45;5.85;;;;;;;;;;5094960;28;20226;-62
2024/01/07 12:57:59;;;;;;;6.75;6.15;;;;;;;;;;5098133;28;20199;-61
2024/01/07 13:00:26;;;;;;;7.40;6.55;;;;;;;;;;5098436;28;20586;-61
2024/01/07 13:02:52;;;;;;;7.28;6.57;;;;;;;;;;5095095;28;20199;-64
2024/01/07 13:05:19;;;;;;;6.90;6.20;;;;;;;;;;5093771;28;20215;-61
2024/01/07 13:07:45;;;;;;;6.50;5.97;;;;;;;;;;5096568;28;20222;-62
2024/01/07 13:10:12;;;;;;;6.78;6.18;;;;;;;;;;5098316;28;20722;-61
2024/01/07 13:12:39;;;;;;;7.53;6.22;;;;;;;;;;5089135;28;20699;-62
2024/01/07 13:15:06;;;;;;;6.88;6.28;;;;;;;;;;5095924;28;20215;-62
2024/01/07 13:17:33;;;;;;;7.07;6.43;;;;;;;;;;5099892;28;20200;-61
2024/01/07 13:19:59;;;;;;;6.47;5.88;;;;;;;;;;5102774;28;20484;-62
2024/01/07 13:22:25;;;;;;;6.75;6.15;;;;;;;;;;5101678;28;20191;-61
2024/01/07 13:24:54;;;;;;;7.25;6.55;;;;;;;;;;5098950;28;20728;-61
2024/01/07 13:27:21;;;;;;;7.43;6.72;;;;;;;;;;5097885;28;20669;-61
2024/01/07 13:29:49;;;;;;;8.75;6.72;;;;;;;;;;5100338;28;20200;-61
2024/01/07 13:32:17;;;;;;;7.43;6.75;;;;;;;;;;5101534;28;20203;-61
2024/01/07 13:34:43;;;;;;;8.27;7.13;;;;;;;;;;5100120;28;20227;-61
2024/01/07 13:37:10;;;;;;;8.95;7.47;;;;;;;;;;5099888;28;20228;-61
2024/01/07 13:39:36;;;;;;;10.00;8.82;;;;;;;;;;5099881;28;20223;-61
2024/01/07 13:42:02;;;;;;;10.57;8.52;;;;;;;;;;5103123;28;20659;-61
2024/01/07 13:44:29;;;;;;;13.25;9.13;;;;;;;;;;5103219;28;20199;-61
2024/01/07 13:46:56;;;;;;;10.57;8.90;;;;;;;;;;5100002;28;20284;-61
2024/01/07 13:49:22;;;;;;;11.88;9.38;;;;;;;;;;5099878;28;20192;-61
2024/01/07 13:51:49;;;;;;;10.90;9.43;;;;;;;;;;5101168;28;20668;-61
2024/01/07 13:54:16;;;;;;;11.95;9.93;;;;;;;;;;5102966;28;20195;-61
2024/01/07 13:56:43;;;;;;;11.50;10.02;;;;;;;;;;5101892;28;20265;-61
2024/01/07 13:59:10;;;;;;;11.07;9.88;;;;;;;;;;5099676;28;20246;-61
2024/01/07 14:01:36;;;;;;;12.60;10.23;;;;;;;;;;5099481;28;20199;-61
2024/01/07 14:04:04;;;;;;;13.27;9.93;;;;;;;;;;5103183;28;20199;-61
2024/01/07 14:06:30;;;;;;;11.95;9.55;;;;;;;;;;5102627;28;20215;-61
2024/01/07 14:08:56;;;;;;;11.77;9.80;;;;;;;;;;5099791;28;20291;-61
2024/01/07 14:11:23;;;;;;;12.88;10.18;;;;;;;;;;5099637;28;20199;-61
2024/01/07 14:13:49;;;;;;;10.63;9.35;;;;;;;;;;5101427;28;20207;-63
2024/01/07 14:16:15;;;;;;;12.40;10.20;;;;;;;;;;5102678;28;20288;-61
2024/01/07 14:18:42;;;;;;;12.02;10.27;;;;;;;;;;5105892;28;20580;-61
2024/01/07 14:21:10;;;;;;;12.95;10.90;;;;;;;;;;5103142;28;20200;-61
2024/01/07 14:23:36;;;;;;;14.30;11.00;;;;;;;;;;5103168;28;20586;-61